Monday, February 19, 2018, 5:05 AM EST
Back to Local

KDOV, Dover Air Force Base

Location: Dover, DE, United States Lat: 39.133
Local Time: 5:05 AM EST (10:05 GMT) Lon: -75.467
Time Zone: US/Eastern Elev: 29 ft

Show me the last for .
Show Decoded

2018-02-19 03:56 METAR KDOV 190856Z AUTO 16005KT 10SM CLR 01/M01 A3050 RMK AO2 SLP332 T00141013
                 58001 $ =
2018-02-19 02:56 METAR KDOV 190756Z AUTO 14005KT 10SM BKN230 03/00 A3051 RMK AO2 SLP335 T00251003
                 $ =
2018-02-19 01:56 METAR KDOV 190656Z AUTO 14006KT 10SM FEW240 02/M01 A3051 RMK AO2 SLP335
                 T00221014 $ =
2018-02-19 00:56 METAR KDOV 190556Z AUTO 11008KT 10SM CLR 02/M01 A3050 RMK AO2 SLP332 T00221014
                 10046 20004 50003 $ =
2018-02-18 23:56 METAR KDOV 190456Z AUTO 13003KT 10SM CLR 02/00 A3051 RMK AO2 SLP335 T00190001
                 400820006 $ =
2018-02-18 22:56 METAR KDOV 190356Z AUTO 00000KT 10SM CLR 02/00 A3052 RMK AO2 SLP339 T00200001 $
                 =
2018-02-18 21:56 METAR KDOV 190256Z AUTO 10003KT 10SM CLR 03/M01 A3049 RMK AO2 SLP328 T00271009
                 53006 $ =
2018-02-18 20:56 METAR KDOV 190156Z AUTO 07004KT 10SM CLR 02/M01 A3048 RMK AO2 SLP325 T00161010 $
                 =
2018-02-18 19:56 METAR KDOV 190056Z AUTO 08003KT 10SM CLR 02/M01 A3047 RMK AO2 SLP322 T00231010 $
                 =
2018-02-18 18:56 METAR KDOV 182356Z AUTO 00000KT 10SM CLR 05/M01 A3047 RMK AO2 SLP322 T00471009
                 10082 20047 52020 $ =
2018-02-18 17:56 METAR KDOV 182256Z AUTO 26003KT 10SM CLR 06/M01 A3046 RMK AO2 SLP318 T00591010 $
                 =
2018-02-18 16:56 METAR KDOV 182156Z AUTO 27004KT 10SM CLR 07/M01 A3042 RMK AO2 SLP305 T00701009 $
                 =
2018-02-18 15:56 METAR KDOV 182056Z AUTO 28007KT 10SM CLR 08/M01 A3041 RMK AO2 SLP301 T00791011
                 53005 $ =
2018-02-18 14:56 METAR KDOV 181956Z AUTO 31007KT 10SM CLR 08/M01 A3039 RMK AO2 SLP294 T00801013 $
                 =
2018-02-18 13:56 METAR KDOV 181856Z AUTO 30009G16KT 10SM CLR 08/M01 A3039 RMK AO2 SLP294
                 T00771010 $ =
2018-02-18 13:11 METAR KDOV 181811Z AUTO 28011KT 10SM CLR 07/M01 A3041 RMK AO2 WSHFT 07 SLP301 $
                 =
2018-02-18 12:56 METAR KDOV 181756Z AUTO 30012KT 10SM CLR 07/M01 A3040 RMK AO2 SLP298 T00691008
                 10069 20012 52015 $ =
2018-02-18 11:56 METAR KDOV 181656Z AUTO 31013G16KT 10SM CLR 06/M01 A3039 RMK AO2 SLP294
                 T00621008 $ =
2018-02-18 10:56 METAR KDOV 181556Z AUTO 32011KT 10SM FEW035 05/M01 A3039 RMK AO2 SLP294
                 T00501008 $ =
2018-02-18 09:56 METAR KDOV 181456Z AUTO 32015G20KT 10SM CLR 04/00 A3036 RMK AO2 SLP284 T00431003
                 52044 $ =
2018-02-18 08:56 METAR KDOV 181356Z AUTO 28007KT 10SM CLR 04/01 A3032 RMK AO2 SLP271 T00360005 $
                 =
2018-02-18 07:56 METAR KDOV 181256Z AUTO 27006KT 10SM CLR 02/00 A3028 RMK AO2 SLP257 T00190004 $
                 =
2018-02-18 06:56 METAR KDOV 181156Z AUTO 25006KT 10SM CLR 01/00 A3023 RMK AO2 SLP240 70036
                 T00130003 10017 20006 52054 $ =
2018-02-18 05:56 METAR KDOV 181056Z 25007KT 7SM SCT008 01/01 A3017 RMK AO2A SLP220 T00140005 $ =
2018-02-18 05:31 METAR KDOV 181031Z AUTO 25009KT 10SM SCT008 02/01 A3015 RMK AO2 SLP213 $ =
2018-02-18 05:11 METAR KDOV 181011Z AUTO 26008KT 10SM OVC008 02/01 A3014 RMK AO2 CIG 007 RWY19
                 PRESRR SLP210 $ =

Support USWX by starting your Amazon purchase here.